CMA CGM Balzac — DIHN — position and weather

sailwx.info

Track history (hours):
 
Tides and Currents Weather Stations Pressure Air Temp Water Temp Dewpoint Dewpoint Depression Visibility Wind Speed Wind Dir Waves Ship Positions

CMA CGM Balzac

Last reported at 2014-Jul-24 20:32 UTC. Time now 2014-Jul-25 23:01 UTC.
Position N 32°08' E 030°28'.

Length 300.3 m; beam 40.3 m; draft 14 m.

Type: Ship. MMSI: 211378810.

Date/timePositionNaut miles runAvg speedWind from/ knotsBaromVisibWave heightAir tempDewpointWater temp
2014-Jul-24 20:32N 32°08' E 030°28'5317.8
2014-Jul-24 17:33N 31°53' E 031°28'1817.9
2014-Jul-24 16:33N 31°48' E 031°48'1816.2
2014-Jul-24 15:26N 31°39' E 032°06'1516.7
2014-Jul-24 14:33N 31°29' E 032°19'1413.9
2014-Jul-24 13:33N 31°15' E 032°21'9 9.4
2014-Jul-24 12:33N 31°06' E 032°19'76 8.1
2014-Jul-24 03:05N 29°51' E 032°33'1 0.1
2014-Jul-23 20:31N 29°50' E 032°34'2211.0
2014-Jul-23 18:30N 29°29' E 032°38'  
Track history (hours):
 
Tides and Currents Weather Stations Pressure Air Temp Water Temp Dewpoint Dewpoint Depression Visibility Wind Speed Wind Dir Waves Ship Positions

CMA CGM Balzac

Last reported at 2014-Jul-24 20:32 UTC. Time now 2014-Jul-25 23:01 UTC.
Position N 32°08' E 030°28'.

Length 300.3 m; beam 40.3 m; draft 14 m.

Type: Ship. MMSI: 211378810.

Date/timePositionNaut miles runAvg speedWind from/ knotsBaromVisibWave heightAir tempDewpointWater temp
2014-Jul-24 20:32N 32°08' E 030°28'5317.8
2014-Jul-24 17:33N 31°53' E 031°28'1817.9
2014-Jul-24 16:33N 31°48' E 031°48'1816.2
2014-Jul-24 15:26N 31°39' E 032°06'1516.7
2014-Jul-24 14:33N 31°29' E 032°19'1413.9
2014-Jul-24 13:33N 31°15' E 032°21'9 9.4
2014-Jul-24 12:33N 31°06' E 032°19'76 8.1
2014-Jul-24 03:05N 29°51' E 032°33'1 0.1
2014-Jul-23 20:31N 29°50' E 032°34'2211.0
2014-Jul-23 18:30N 29°29' E 032°38'  

Dump ship's entire track history